Ana Sayfa
METAR-TAF:

METAR-TAF

Havaalanları :

Platinum, Alaska, Amerika Birleşik Devletleri

Enlem: 59-01N, Boylam: 161-49W, yükseklik: 3 m

Güncel hava durumu gözlemi

Rapor saat 15:56 UTC de 38 dakika önce yapıldı.
Rüzgar kuzey/kuzeybatıdan 13 kt
Sıcaklık -5°C
Nem 93%
Basınç 1024 hPa
Görüş mesafesi: 2.4 km
300 ft yükseklikte çok bulutlu
hafif kar, Pus

METAR: PAPM 021556Z AUTO 34013KT 1 1/2SM -SN BR OVC003 M05/M06 A3025 RMK AO2 VIS 3/4V5 SLP244 P0000 T10501056 FZRANO

Saat: 08:34 (16:34 UTC)


TAF: eksik

4.000'den fazla havaalanı için hava durumu gözlemleri ve tahminleri (METAR ve TAF raporları).

Kullanılabilir istasyonlar harita üzerinde sarı ve kırmızı noktalarla gösterilir.

İstasyonun adını görmek için fareyi noktanın üzerinde gezdirin.

Sonrasında hava gözlem ve tahminlerini görmek için tıklayın.

Haritayı değiştirmek için: yaklaştırmak için siyah artı işaretli yeşil düğmeye ve uzaklaştırmak için de eksi işaretli düğmeye hızla tıklayın; bitişik haritalar için yeşil okları kullanın.


METAR-TAF: